sensor_id;sensor_type;location;lat;lon;timestamp;temperature;humidity
14101;DHT22;7127;49.372;8.166;2023-02-28T00:00:50;3.70;41.10
14101;DHT22;7127;49.372;8.166;2023-02-28T00:03:17;3.70;41.20
14101;DHT22;7127;49.372;8.166;2023-02-28T00:05:44;3.70;41.10
14101;DHT22;7127;49.372;8.166;2023-02-28T00:08:11;3.70;41.00
14101;DHT22;7127;49.372;8.166;2023-02-28T00:10:40;4.10;41.60
14101;DHT22;7127;49.372;8.166;2023-02-28T00:13:07;3.60;41.30
14101;DHT22;7127;49.372;8.166;2023-02-28T00:15:34;3.70;41.30
14101;DHT22;7127;49.372;8.166;2023-02-28T00:18:02;3.70;41.30
14101;DHT22;7127;49.372;8.166;2023-02-28T00:20:29;3.70;41.40
14101;DHT22;7127;49.372;8.166;2023-02-28T00:22:56;3.70;41.40
14101;DHT22;7127;49.372;8.166;2023-02-28T00:25:24;3.80;41.50
14101;DHT22;7127;49.372;8.166;2023-02-28T00:27:52;3.70;41.40
14101;DHT22;7127;49.372;8.166;2023-02-28T00:30:21;3.70;41.40
14101;DHT22;7127;49.372;8.166;2023-02-28T00:32:50;3.70;41.40
14101;DHT22;7127;49.372;8.166;2023-02-28T00:35:17;3.90;41.50
14101;DHT22;7127;49.372;8.166;2023-02-28T00:37:44;4.10;41.60
14101;DHT22;7127;49.372;8.166;2023-02-28T00:40:11;3.80;41.40
14101;DHT22;7127;49.372;8.166;2023-02-28T00:42:38;3.80;41.50
14101;DHT22;7127;49.372;8.166;2023-02-28T00:45:07;3.80;41.50
14101;DHT22;7127;49.372;8.166;2023-02-28T00:47:35;3.80;41.40
14101;DHT22;7127;49.372;8.166;2023-02-28T00:50:02;3.80;41.50
14101;DHT22;7127;49.372;8.166;2023-02-28T00:52:29;3.80;41.60
14101;DHT22;7127;49.372;8.166;2023-02-28T00:54:56;3.80;41.70
14101;DHT22;7127;49.372;8.166;2023-02-28T00:57:23;4.00;41.90
14101;DHT22;7127;49.372;8.166;2023-02-28T00:59:50;3.80;41.90
14101;DHT22;7127;49.372;8.166;2023-02-28T01:02:21;3.70;41.80
14101;DHT22;7127;49.372;8.166;2023-02-28T01:04:48;3.70;41.90
14101;DHT22;7127;49.372;8.166;2023-02-28T01:07:15;3.60;41.80
14101;DHT22;7127;49.372;8.166;2023-02-28T01:09:42;3.60;41.90
14101;DHT22;7127;49.372;8.166;2023-02-28T01:12:09;3.60;42.30
14101;DHT22;7127;49.372;8.166;2023-02-28T01:14:36;3.50;42.30
14101;DHT22;7127;49.372;8.166;2023-02-28T01:17:03;3.50;42.80
14101;DHT22;7127;49.372;8.166;2023-02-28T01:19:31;3.50;42.40
14101;DHT22;7127;49.372;8.166;2023-02-28T01:22:00;3.50;42.50
14101;DHT22;7127;49.372;8.166;2023-02-28T01:24:27;3.40;42.50
14101;DHT22;7127;49.372;8.166;2023-02-28T01:26:54;3.70;43.10
14101;DHT22;7127;49.372;8.166;2023-02-28T01:29:21;3.40;42.50
14101;DHT22;7127;49.372;8.166;2023-02-28T01:31:48;3.40;42.90
14101;DHT22;7127;49.372;8.166;2023-02-28T01:34:15;3.40;43.40
14101;DHT22;7127;49.372;8.166;2023-02-28T01:36:43;3.30;42.60
14101;DHT22;7127;49.372;8.166;2023-02-28T01:39:10;3.40;42.90
14101;DHT22;7127;49.372;8.166;2023-02-28T01:41:38;3.30;43.10
14101;DHT22;7127;49.372;8.166;2023-02-28T01:44:06;3.30;42.90
14101;DHT22;7127;49.372;8.166;2023-02-28T01:46:35;3.40;43.10
14101;DHT22;7127;49.372;8.166;2023-02-28T01:49:06;3.30;42.90
14101;DHT22;7127;49.372;8.166;2023-02-28T01:51:40;3.30;43.20
14101;DHT22;7127;49.372;8.166;2023-02-28T01:54:15;3.50;43.40
14101;DHT22;7127;49.372;8.166;2023-02-28T01:56:45;3.30;42.90
14101;DHT22;7127;49.372;8.166;2023-02-28T01:59:16;3.20;42.80
14101;DHT22;7127;49.372;8.166;2023-02-28T02:01:46;3.30;43.20
14101;DHT22;7127;49.372;8.166;2023-02-28T02:04:13;3.20;42.80
14101;DHT22;7127;49.372;8.166;2023-02-28T02:06:43;3.10;42.90
14101;DHT22;7127;49.372;8.166;2023-02-28T02:09:12;3.10;43.00
14101;DHT22;7127;49.372;8.166;2023-02-28T02:11:41;3.10;43.60
14101;DHT22;7127;49.372;8.166;2023-02-28T02:14:31;3.10;43.70
14101;DHT22;7127;49.372;8.166;2023-02-28T02:17:12;3.00;43.40
14101;DHT22;7127;49.372;8.166;2023-02-28T02:22:54;3.00;43.60
14101;DHT22;7127;49.372;8.166;2023-02-28T02:25:33;3.00;43.40
14101;DHT22;7127;49.372;8.166;2023-02-28T02:28:20;3.00;43.60
14101;DHT22;7127;49.372;8.166;2023-02-28T02:31:13;2.90;43.40
14101;DHT22;7127;49.372;8.166;2023-02-28T02:34:08;2.90;43.90
14101;DHT22;7127;49.372;8.166;2023-02-28T02:36:48;2.90;43.70
14101;DHT22;7127;49.372;8.166;2023-02-28T02:39:21;2.80;43.50
14101;DHT22;7127;49.372;8.166;2023-02-28T02:41:52;2.80;43.90
14101;DHT22;7127;49.372;8.166;2023-02-28T02:44:22;2.80;43.80
14101;DHT22;7127;49.372;8.166;2023-02-28T02:46:53;2.80;43.80
14101;DHT22;7127;49.372;8.166;2023-02-28T02:49:25;2.80;43.60
14101;DHT22;7127;49.372;8.166;2023-02-28T02:51:53;2.80;43.70
14101;DHT22;7127;49.372;8.166;2023-02-28T02:54:24;2.80;44.60
14101;DHT22;7127;49.372;8.166;2023-02-28T02:56:56;2.80;44.30
14101;DHT22;7127;49.372;8.166;2023-02-28T02:59:25;2.80;43.80
14101;DHT22;7127;49.372;8.166;2023-02-28T03:01:57;2.80;44.10
14101;DHT22;7127;49.372;8.166;2023-02-28T03:04:30;2.80;43.80
14101;DHT22;7127;49.372;8.166;2023-02-28T03:06:57;2.80;43.70
14101;DHT22;7127;49.372;8.166;2023-02-28T03:09:25;2.70;44.00
14101;DHT22;7127;49.372;8.166;2023-02-28T03:11:55;2.80;44.10
14101;DHT22;7127;49.372;8.166;2023-02-28T03:14:32;2.70;44.10
14101;DHT22;7127;49.372;8.166;2023-02-28T03:17:19;2.70;44.00
14101;DHT22;7127;49.372;8.166;2023-02-28T03:19:58;2.70;44.00
14101;DHT22;7127;49.372;8.166;2023-02-28T03:22:51;2.70;44.10
14101;DHT22;7127;49.372;8.166;2023-02-28T03:25:27;2.70;44.70
14101;DHT22;7127;49.372;8.166;2023-02-28T03:28:01;2.60;44.50
14101;DHT22;7127;49.372;8.166;2023-02-28T03:30:35;2.60;44.90
14101;DHT22;7127;49.372;8.166;2023-02-28T03:33:06;2.60;44.90
14101;DHT22;7127;49.372;8.166;2023-02-28T03:35:38;2.50;44.80
14101;DHT22;7127;49.372;8.166;2023-02-28T03:38:10;2.70;44.60
14101;DHT22;7127;49.372;8.166;2023-02-28T03:40:42;2.60;44.60
14101;DHT22;7127;49.372;8.166;2023-02-28T03:43:15;2.50;44.40
14101;DHT22;7127;49.372;8.166;2023-02-28T03:45:45;2.60;44.90
14101;DHT22;7127;49.372;8.166;2023-02-28T03:48:16;2.50;44.90
14101;DHT22;7127;49.372;8.166;2023-02-28T03:50:49;2.50;44.50
14101;DHT22;7127;49.372;8.166;2023-02-28T03:53:21;2.50;44.40
14101;DHT22;7127;49.372;8.166;2023-02-28T03:55:54;2.60;44.50
14101;DHT22;7127;49.372;8.166;2023-02-28T03:58:28;2.50;44.80
14101;DHT22;7127;49.372;8.166;2023-02-28T04:01:02;2.60;44.70
14101;DHT22;7127;49.372;8.166;2023-02-28T04:03:34;2.60;45.20
14101;DHT22;7127;49.372;8.166;2023-02-28T04:06:03;2.50;44.80
14101;DHT22;7127;49.372;8.166;2023-02-28T04:08:30;2.60;44.60
14101;DHT22;7127;49.372;8.166;2023-02-28T04:11:01;2.50;45.20
14101;DHT22;7127;49.372;8.166;2023-02-28T04:13:29;2.50;45.20
14101;DHT22;7127;49.372;8.166;2023-02-28T04:15:57;2.50;44.80
14101;DHT22;7127;49.372;8.166;2023-02-28T04:18:23;2.50;44.80
14101;DHT22;7127;49.372;8.166;2023-02-28T04:20:51;2.50;44.80
14101;DHT22;7127;49.372;8.166;2023-02-28T04:23:19;2.50;44.80
14101;DHT22;7127;49.372;8.166;2023-02-28T04:25:46;2.50;44.90
14101;DHT22;7127;49.372;8.166;2023-02-28T04:28:12;2.50;44.90
14101;DHT22;7127;49.372;8.166;2023-02-28T04:30:39;2.40;44.80
14101;DHT22;7127;49.372;8.166;2023-02-28T04:33:07;2.40;45.20
14101;DHT22;7127;49.372;8.166;2023-02-28T04:35:33;2.40;45.50
14101;DHT22;7127;49.372;8.166;2023-02-28T04:38:00;2.40;45.10
14101;DHT22;7127;49.372;8.166;2023-02-28T04:40:28;2.40;45.10
14101;DHT22;7127;49.372;8.166;2023-02-28T04:42:55;2.50;45.00
14101;DHT22;7127;49.372;8.166;2023-02-28T04:45:22;2.50;45.20
14101;DHT22;7127;49.372;8.166;2023-02-28T04:47:49;2.50;45.10
14101;DHT22;7127;49.372;8.166;2023-02-28T04:50:16;2.40;45.10
14101;DHT22;7127;49.372;8.166;2023-02-28T04:52:43;2.50;45.20
14101;DHT22;7127;49.372;8.166;2023-02-28T04:55:10;2.40;45.10
14101;DHT22;7127;49.372;8.166;2023-02-28T04:57:38;2.40;45.10
14101;DHT22;7127;49.372;8.166;2023-02-28T05:00:06;2.50;45.80
14101;DHT22;7127;49.372;8.166;2023-02-28T05:02:37;2.30;46.00
14101;DHT22;7127;49.372;8.166;2023-02-28T05:05:04;2.40;46.70
14101;DHT22;7127;49.372;8.166;2023-02-28T05:07:30;2.30;46.00
14101;DHT22;7127;49.372;8.166;2023-02-28T05:09:57;2.20;46.40
14101;DHT22;7127;49.372;8.166;2023-02-28T05:12:24;2.20;46.40
14101;DHT22;7127;49.372;8.166;2023-02-28T05:14:52;2.20;46.30
14101;DHT22;7127;49.372;8.166;2023-02-28T05:17:19;2.20;46.20
14101;DHT22;7127;49.372;8.166;2023-02-28T05:19:46;2.20;46.40
14101;DHT22;7127;49.372;8.166;2023-02-28T05:22:14;2.20;46.80
14101;DHT22;7127;49.372;8.166;2023-02-28T05:24:42;2.20;46.60
14101;DHT22;7127;49.372;8.166;2023-02-28T05:27:10;2.20;46.80
14101;DHT22;7127;49.372;8.166;2023-02-28T05:29:37;2.20;46.70
14101;DHT22;7127;49.372;8.166;2023-02-28T05:32:09;2.20;46.60
14101;DHT22;7127;49.372;8.166;2023-02-28T05:34:37;2.20;47.10
14101;DHT22;7127;49.372;8.166;2023-02-28T05:37:04;2.30;47.10
14101;DHT22;7127;49.372;8.166;2023-02-28T05:39:30;2.30;46.60
14101;DHT22;7127;49.372;8.166;2023-02-28T05:41:57;2.30;46.50
14101;DHT22;7127;49.372;8.166;2023-02-28T05:44:24;2.60;46.80
14101;DHT22;7127;49.372;8.166;2023-02-28T05:46:51;2.30;47.60
14101;DHT22;7127;49.372;8.166;2023-02-28T05:49:19;2.40;46.80
14101;DHT22;7127;49.372;8.166;2023-02-28T05:51:46;2.40;46.90
14101;DHT22;7127;49.372;8.166;2023-02-28T05:54:13;2.30;47.20
14101;DHT22;7127;49.372;8.166;2023-02-28T05:56:40;2.40;47.30
14101;DHT22;7127;49.372;8.166;2023-02-28T05:59:09;2.30;46.90
14101;DHT22;7127;49.372;8.166;2023-02-28T06:01:38;2.40;46.90
14101;DHT22;7127;49.372;8.166;2023-02-28T06:04:09;2.30;46.80
14101;DHT22;7127;49.372;8.166;2023-02-28T06:06:37;2.30;47.10
14101;DHT22;7127;49.372;8.166;2023-02-28T06:09:05;2.30;47.30
14101;DHT22;7127;49.372;8.166;2023-02-28T06:11:32;2.30;46.80
14101;DHT22;7127;49.372;8.166;2023-02-28T06:14:00;2.30;46.80
14101;DHT22;7127;49.372;8.166;2023-02-28T06:16:28;2.40;47.10
14101;DHT22;7127;49.372;8.166;2023-02-28T06:18:57;2.40;46.90
14101;DHT22;7127;49.372;8.166;2023-02-28T06:21:25;2.30;46.90
14101;DHT22;7127;49.372;8.166;2023-02-28T06:23:54;2.40;47.10
14101;DHT22;7127;49.372;8.166;2023-02-28T06:26:21;2.40;47.30
14101;DHT22;7127;49.372;8.166;2023-02-28T06:28:48;2.30;47.20
14101;DHT22;7127;49.372;8.166;2023-02-28T06:31:17;2.30;47.30
14101;DHT22;7127;49.372;8.166;2023-02-28T06:33:45;2.40;47.20
14101;DHT22;7127;49.372;8.166;2023-02-28T06:36:14;2.40;47.20
14101;DHT22;7127;49.372;8.166;2023-02-28T06:38:41;2.40;47.30
14101;DHT22;7127;49.372;8.166;2023-02-28T06:41:10;2.40;46.90
14101;DHT22;7127;49.372;8.166;2023-02-28T06:43:40;2.40;47.10
14101;DHT22;7127;49.372;8.166;2023-02-28T06:46:11;2.50;47.30
14101;DHT22;7127;49.372;8.166;2023-02-28T06:48:38;2.50;47.20
14101;DHT22;7127;49.372;8.166;2023-02-28T06:51:07;2.50;47.20
14101;DHT22;7127;49.372;8.166;2023-02-28T06:53:35;2.50;47.30
14101;DHT22;7127;49.372;8.166;2023-02-28T06:56:04;2.50;47.40
14101;DHT22;7127;49.372;8.166;2023-02-28T06:58:33;2.50;47.50
14101;DHT22;7127;49.372;8.166;2023-02-28T07:01:01;2.50;47.40
14101;DHT22;7127;49.372;8.166;2023-02-28T07:03:28;2.50;47.60
14101;DHT22;7127;49.372;8.166;2023-02-28T07:05:55;2.40;47.60
14101;DHT22;7127;49.372;8.166;2023-02-28T07:08:23;2.50;47.30
14101;DHT22;7127;49.372;8.166;2023-02-28T07:10:52;2.50;47.40
14101;DHT22;7127;49.372;8.166;2023-02-28T07:13:20;2.50;47.50
14101;DHT22;7127;49.372;8.166;2023-02-28T07:15:54;2.50;47.50
14101;DHT22;7127;49.372;8.166;2023-02-28T07:18:21;2.50;47.40
14101;DHT22;7127;49.372;8.166;2023-02-28T07:20:48;2.50;47.30
14101;DHT22;7127;49.372;8.166;2023-02-28T07:23:15;2.50;47.50
14101;DHT22;7127;49.372;8.166;2023-02-28T07:25:42;2.50;47.50
14101;DHT22;7127;49.372;8.166;2023-02-28T07:28:09;2.90;47.90
14101;DHT22;7127;49.372;8.166;2023-02-28T07:30:36;2.50;47.70
14101;DHT22;7127;49.372;8.166;2023-02-28T07:33:04;2.60;47.70
14101;DHT22;7127;49.372;8.166;2023-02-28T07:35:31;2.50;47.60
14101;DHT22;7127;49.372;8.166;2023-02-28T07:37:59;2.60;47.50
14101;DHT22;7127;49.372;8.166;2023-02-28T07:40:26;2.60;47.50
14101;DHT22;7127;49.372;8.166;2023-02-28T07:42:53;2.70;47.60
14101;DHT22;7127;49.372;8.166;2023-02-28T07:45:20;2.70;47.30
14101;DHT22;7127;49.372;8.166;2023-02-28T07:47:47;2.70;47.20
14101;DHT22;7127;49.372;8.166;2023-02-28T07:50:15;2.80;47.20
14101;DHT22;7127;49.372;8.166;2023-02-28T07:52:42;2.80;47.30
14101;DHT22;7127;49.372;8.166;2023-02-28T07:55:10;2.80;47.30
14101;DHT22;7127;49.372;8.166;2023-02-28T07:57:37;2.90;47.50
14101;DHT22;7127;49.372;8.166;2023-02-28T08:00:06;3.20;47.50
14101;DHT22;7127;49.372;8.166;2023-02-28T08:02:35;2.90;47.40
14101;DHT22;7127;49.372;8.166;2023-02-28T08:05:02;3.00;47.40
14101;DHT22;7127;49.372;8.166;2023-02-28T08:07:30;3.00;47.40
14101;DHT22;7127;49.372;8.166;2023-02-28T08:09:57;3.30;47.50
14101;DHT22;7127;49.372;8.166;2023-02-28T08:12:25;3.00;47.40
14101;DHT22;7127;49.372;8.166;2023-02-28T08:14:52;3.00;47.30
14101;DHT22;7127;49.372;8.166;2023-02-28T08:17:18;3.20;47.50
14101;DHT22;7127;49.372;8.166;2023-02-28T08:19:46;3.50;47.60
14101;DHT22;7127;49.372;8.166;2023-02-28T08:22:13;3.10;47.40
14101;DHT22;7127;49.372;8.166;2023-02-28T08:24:42;3.40;47.70
14101;DHT22;7127;49.372;8.166;2023-02-28T08:27:09;3.10;47.40
14101;DHT22;7127;49.372;8.166;2023-02-28T08:29:37;3.40;47.50
14101;DHT22;7127;49.372;8.166;2023-02-28T08:32:05;3.30;47.50
14101;DHT22;7127;49.372;8.166;2023-02-28T08:34:32;3.60;47.60
14101;DHT22;7127;49.372;8.166;2023-02-28T08:36:59;4.10;47.80
14101;DHT22;7127;49.372;8.166;2023-02-28T08:39:26;3.50;47.40
14101;DHT22;7127;49.372;8.166;2023-02-28T08:41:54;3.60;47.50
14101;DHT22;7127;49.372;8.166;2023-02-28T08:44:21;3.70;47.30
14101;DHT22;7127;49.372;8.166;2023-02-28T08:46:48;3.80;47.20
14101;DHT22;7127;49.372;8.166;2023-02-28T08:49:14;4.30;47.50
14101;DHT22;7127;49.372;8.166;2023-02-28T08:51:41;4.00;47.10
14101;DHT22;7127;49.372;8.166;2023-02-28T08:54:08;4.10;47.20
14101;DHT22;7127;49.372;8.166;2023-02-28T08:56:38;4.10;47.00
14101;DHT22;7127;49.372;8.166;2023-02-28T08:59:09;4.50;47.10
14101;DHT22;7127;49.372;8.166;2023-02-28T09:01:36;4.30;46.90
14101;DHT22;7127;49.372;8.166;2023-02-28T09:04:03;5.20;47.40
14101;DHT22;7127;49.372;8.166;2023-02-28T09:06:29;4.50;46.80
14101;DHT22;7127;49.372;8.166;2023-02-28T09:08:58;4.50;46.70
14101;DHT22;7127;49.372;8.166;2023-02-28T09:11:26;4.80;46.80
14101;DHT22;7127;49.372;8.166;2023-02-28T09:13:53;4.60;46.60
14101;DHT22;7127;49.372;8.166;2023-02-28T09:16:23;4.60;46.50
14101;DHT22;7127;49.372;8.166;2023-02-28T09:18:50;4.90;46.50
14101;DHT22;7127;49.372;8.166;2023-02-28T09:21:18;4.70;46.20
14101;DHT22;7127;49.372;8.166;2023-02-28T09:23:47;4.80;46.20
14101;DHT22;7127;49.372;8.166;2023-02-28T09:26:16;5.30;46.50
14101;DHT22;7127;49.372;8.166;2023-02-28T09:28:43;4.90;46.00
14101;DHT22;7127;49.372;8.166;2023-02-28T09:31:13;5.00;45.90
14101;DHT22;7127;49.372;8.166;2023-02-28T09:33:42;5.00;45.80
14101;DHT22;7127;49.372;8.166;2023-02-28T09:36:09;5.60;46.20
14101;DHT22;7127;49.372;8.166;2023-02-28T09:38:36;5.80;46.40
14101;DHT22;7127;49.372;8.166;2023-02-28T09:41:08;5.30;45.80
14101;DHT22;7127;49.372;8.166;2023-02-28T09:43:39;5.30;45.70
14101;DHT22;7127;49.372;8.166;2023-02-28T09:46:21;6.00;46.10
14101;DHT22;7127;49.372;8.166;2023-02-28T09:49:05;5.40;45.50
14101;DHT22;7127;49.372;8.166;2023-02-28T09:51:55;5.50;45.50
14101;DHT22;7127;49.372;8.166;2023-02-28T09:54:30;5.50;46.00
14101;DHT22;7127;49.372;8.166;2023-02-28T09:57:01;5.90;45.60
14101;DHT22;7127;49.372;8.166;2023-02-28T09:59:46;5.60;45.20
14101;DHT22;7127;49.372;8.166;2023-02-28T10:02:28;5.70;45.10
14101;DHT22;7127;49.372;8.166;2023-02-28T10:05:05;5.80;45.10
14101;DHT22;7127;49.372;8.166;2023-02-28T10:07:51;5.80;44.90
14101;DHT22;7127;49.372;8.166;2023-02-28T10:10:27;5.90;44.90
14101;DHT22;7127;49.372;8.166;2023-02-28T10:12:57;5.90;44.80
14101;DHT22;7127;49.372;8.166;2023-02-28T10:15:29;6.00;44.90
14101;DHT22;7127;49.372;8.166;2023-02-28T10:18:00;6.80;45.30
14101;DHT22;7127;49.372;8.166;2023-02-28T10:20:32;6.00;44.60
14101;DHT22;7127;49.372;8.166;2023-02-28T10:23:05;6.30;44.60
14101;DHT22;7127;49.372;8.166;2023-02-28T10:25:37;6.20;44.40
14101;DHT22;7127;49.372;8.166;2023-02-28T10:28:12;6.20;44.30
14101;DHT22;7127;49.372;8.166;2023-02-28T10:30:42;6.20;44.10
14101;DHT22;7127;49.372;8.166;2023-02-28T10:33:18;6.20;44.10
14101;DHT22;7127;49.372;8.166;2023-02-28T10:35:47;6.90;44.40
14101;DHT22;7127;49.372;8.166;2023-02-28T10:38:19;6.40;43.90
14101;DHT22;7127;49.372;8.166;2023-02-28T10:40:47;6.40;43.70
14101;DHT22;7127;49.372;8.166;2023-02-28T10:43:23;6.40;43.80
14101;DHT22;7127;49.372;8.166;2023-02-28T10:46:15;6.40;43.90
14101;DHT22;7127;49.372;8.166;2023-02-28T10:49:01;6.50;43.90
14101;DHT22;7127;49.372;8.166;2023-02-28T10:51:35;6.60;43.90
14101;DHT22;7127;49.372;8.166;2023-02-28T10:54:03;6.70;44.00
14101;DHT22;7127;49.372;8.166;2023-02-28T10:56:31;6.80;44.00
14101;DHT22;7127;49.372;8.166;2023-02-28T10:59:00;6.80;43.70
14101;DHT22;7127;49.372;8.166;2023-02-28T11:01:36;7.00;43.80
14101;DHT22;7127;49.372;8.166;2023-02-28T11:04:05;7.10;43.40
14101;DHT22;7127;49.372;8.166;2023-02-28T11:06:44;7.50;43.70
14101;DHT22;7127;49.372;8.166;2023-02-28T11:09:20;7.20;43.40
14101;DHT22;7127;49.372;8.166;2023-02-28T11:11:49;7.30;43.30
14101;DHT22;7127;49.372;8.166;2023-02-28T11:14:19;7.50;43.30
14101;DHT22;7127;49.372;8.166;2023-02-28T11:16:48;7.50;43.00
14101;DHT22;7127;49.372;8.166;2023-02-28T11:19:19;7.60;42.90
14101;DHT22;7127;49.372;8.166;2023-02-28T11:21:53;7.60;42.70
14101;DHT22;7127;49.372;8.166;2023-02-28T11:24:24;7.70;42.60
14101;DHT22;7127;49.372;8.166;2023-02-28T11:27:24;7.70;42.60
14101;DHT22;7127;49.372;8.166;2023-02-28T11:29:51;7.80;42.40
14101;DHT22;7127;49.372;8.166;2023-02-28T11:32:20;7.90;42.70
14101;DHT22;7127;49.372;8.166;2023-02-28T11:35:00;7.90;42.40
14101;DHT22;7127;49.372;8.166;2023-02-28T11:37:31;8.00;42.20
14101;DHT22;7127;49.372;8.166;2023-02-28T11:39:59;8.10;42.10
14101;DHT22;7127;49.372;8.166;2023-02-28T11:42:39;8.10;42.00
14101;DHT22;7127;49.372;8.166;2023-02-28T11:45:19;8.20;42.40
14101;DHT22;7127;49.372;8.166;2023-02-28T11:47:55;8.20;41.70
14101;DHT22;7127;49.372;8.166;2023-02-28T11:50:41;8.20;41.20
14101;DHT22;7127;49.372;8.166;2023-02-28T11:53:19;8.20;40.90
14101;DHT22;7127;49.372;8.166;2023-02-28T11:55:51;8.20;41.10
14101;DHT22;7127;49.372;8.166;2023-02-28T11:58:29;8.20;41.20
14101;DHT22;7127;49.372;8.166;2023-02-28T12:01:13;8.20;41.00
14101;DHT22;7127;49.372;8.166;2023-02-28T12:03:45;8.30;40.10
14101;DHT22;7127;49.372;8.166;2023-02-28T12:06:22;8.20;40.50
14101;DHT22;7127;49.372;8.166;2023-02-28T12:09:12;8.20;40.40
14101;DHT22;7127;49.372;8.166;2023-02-28T12:11:46;8.30;40.40
14101;DHT22;7127;49.372;8.166;2023-02-28T12:14:41;8.20;40.30
14101;DHT22;7127;49.372;8.166;2023-02-28T12:17:22;8.20;40.40
14101;DHT22;7127;49.372;8.166;2023-02-28T12:20:02;8.30;40.70
14101;DHT22;7127;49.372;8.166;2023-02-28T12:22:31;8.40;40.50
14101;DHT22;7127;49.372;8.166;2023-02-28T12:25:21;8.50;40.60
14101;DHT22;7127;49.372;8.166;2023-02-28T12:27:49;8.40;40.20
14101;DHT22;7127;49.372;8.166;2023-02-28T12:30:22;8.40;40.20
14101;DHT22;7127;49.372;8.166;2023-02-28T12:32:54;8.40;40.10
14101;DHT22;7127;49.372;8.166;2023-02-28T12:35:25;8.40;40.10
14101;DHT22;7127;49.372;8.166;2023-02-28T12:37:56;8.50;40.10
14101;DHT22;7127;49.372;8.166;2023-02-28T12:40:28;8.40;40.00
14101;DHT22;7127;49.372;8.166;2023-02-28T12:43:03;8.40;39.90
14101;DHT22;7127;49.372;8.166;2023-02-28T12:45:39;8.40;40.00
14101;DHT22;7127;49.372;8.166;2023-02-28T12:48:09;8.40;40.00
14101;DHT22;7127;49.372;8.166;2023-02-28T12:50:40;8.50;40.30
14101;DHT22;7127;49.372;8.166;2023-02-28T12:53:11;8.50;39.50
14101;DHT22;7127;49.372;8.166;2023-02-28T12:55:48;8.60;40.10
14101;DHT22;7127;49.372;8.166;2023-02-28T12:58:20;8.60;40.20
14101;DHT22;7127;49.372;8.166;2023-02-28T13:01:21;8.80;40.20
14101;DHT22;7127;49.372;8.166;2023-02-28T13:04:21;8.80;40.10
14101;DHT22;7127;49.372;8.166;2023-02-28T13:10:08;8.90;39.50
14101;DHT22;7127;49.372;8.166;2023-02-28T13:12:47;8.90;39.70
14101;DHT22;7127;49.372;8.166;2023-02-28T13:15:18;9.00;40.00
14101;DHT22;7127;49.372;8.166;2023-02-28T13:17:50;8.90;39.30
14101;DHT22;7127;49.372;8.166;2023-02-28T13:20:19;8.90;39.20
14101;DHT22;7127;49.372;8.166;2023-02-28T13:22:48;9.00;39.10
14101;DHT22;7127;49.372;8.166;2023-02-28T13:25:50;8.90;39.10
14101;DHT22;7127;49.372;8.166;2023-02-28T13:34:16;9.00;39.10
14101;DHT22;7127;49.372;8.166;2023-02-28T13:36:42;8.90;38.90
14101;DHT22;7127;49.372;8.166;2023-02-28T13:39:46;8.90;38.80
14101;DHT22;7127;49.372;8.166;2023-02-28T13:42:33;8.90;38.70
14101;DHT22;7127;49.372;8.166;2023-02-28T13:45:21;8.80;38.70
14101;DHT22;7127;49.372;8.166;2023-02-28T13:47:55;8.80;38.70
14101;DHT22;7127;49.372;8.166;2023-02-28T13:50:27;8.80;38.70
14101;DHT22;7127;49.372;8.166;2023-02-28T13:53:12;8.90;38.80
14101;DHT22;7127;49.372;8.166;2023-02-28T13:55:44;8.80;38.70
14101;DHT22;7127;49.372;8.166;2023-02-28T13:58:35;9.10;38.90
14101;DHT22;7127;49.372;8.166;2023-02-28T14:01:15;8.80;38.80
14101;DHT22;7127;49.372;8.166;2023-02-28T14:03:58;8.90;39.10
14101;DHT22;7127;49.372;8.166;2023-02-28T14:06:29;8.90;38.90
14101;DHT22;7127;49.372;8.166;2023-02-28T14:08:59;8.90;38.70
14101;DHT22;7127;49.372;8.166;2023-02-28T14:11:32;8.90;38.60
14101;DHT22;7127;49.372;8.166;2023-02-28T14:13:59;8.90;38.40
14101;DHT22;7127;49.372;8.166;2023-02-28T14:16:36;8.90;38.50
14101;DHT22;7127;49.372;8.166;2023-02-28T14:19:13;8.90;38.60
14101;DHT22;7127;49.372;8.166;2023-02-28T14:21:52;8.80;39.10
14101;DHT22;7127;49.372;8.166;2023-02-28T14:24:42;8.80;38.40
14101;DHT22;7127;49.372;8.166;2023-02-28T14:27:23;8.80;38.40
14101;DHT22;7127;49.372;8.166;2023-02-28T14:30:13;9.00;38.60
14101;DHT22;7127;49.372;8.166;2023-02-28T14:32:47;8.80;38.30
14101;DHT22;7127;49.372;8.166;2023-02-28T14:35:29;8.80;38.40
14101;DHT22;7127;49.372;8.166;2023-02-28T14:38:04;8.70;38.10
14101;DHT22;7127;49.372;8.166;2023-02-28T14:40:34;8.70;38.40
14101;DHT22;7127;49.372;8.166;2023-02-28T14:43:03;8.70;38.50
14101;DHT22;7127;49.372;8.166;2023-02-28T14:45:32;8.70;38.50
14101;DHT22;7127;49.372;8.166;2023-02-28T14:48:01;8.70;38.60
14101;DHT22;7127;49.372;8.166;2023-02-28T14:50:30;8.70;38.50
14101;DHT22;7127;49.372;8.166;2023-02-28T14:52:58;8.80;37.90
14101;DHT22;7127;49.372;8.166;2023-02-28T14:55:28;8.70;38.40
14101;DHT22;7127;49.372;8.166;2023-02-28T14:57:57;8.70;38.50
14101;DHT22;7127;49.372;8.166;2023-02-28T15:00:26;8.70;38.40
14101;DHT22;7127;49.372;8.166;2023-02-28T15:02:53;8.70;38.30
14101;DHT22;7127;49.372;8.166;2023-02-28T15:05:26;8.70;38.40
14101;DHT22;7127;49.372;8.166;2023-02-28T15:08:14;8.70;38.40
14101;DHT22;7127;49.372;8.166;2023-02-28T15:10:43;8.70;38.10
14101;DHT22;7127;49.372;8.166;2023-02-28T15:13:12;8.80;38.30
14101;DHT22;7127;49.372;8.166;2023-02-28T15:15:44;8.70;38.30
14101;DHT22;7127;49.372;8.166;2023-02-28T15:18:20;8.60;38.20
14101;DHT22;7127;49.372;8.166;2023-02-28T15:20:51;8.60;38.10
14101;DHT22;7127;49.372;8.166;2023-02-28T15:23:21;8.60;38.20
14101;DHT22;7127;49.372;8.166;2023-02-28T15:25:50;8.60;38.20
14101;DHT22;7127;49.372;8.166;2023-02-28T15:28:20;8.50;38.10
14101;DHT22;7127;49.372;8.166;2023-02-28T15:30:53;8.50;38.20
14101;DHT22;7127;49.372;8.166;2023-02-28T15:33:23;8.50;38.20
14101;DHT22;7127;49.372;8.166;2023-02-28T15:35:50;8.60;38.30
14101;DHT22;7127;49.372;8.166;2023-02-28T15:38:23;8.50;38.20
14101;DHT22;7127;49.372;8.166;2023-02-28T15:40:52;9.20;38.80
14101;DHT22;7127;49.372;8.166;2023-02-28T15:43:26;8.40;38.20
14101;DHT22;7127;49.372;8.166;2023-02-28T15:45:56;9.00;38.60
14101;DHT22;7127;49.372;8.166;2023-02-28T15:48:27;8.40;38.30
14101;DHT22;7127;49.372;8.166;2023-02-28T15:50:56;8.40;38.20
14101;DHT22;7127;49.372;8.166;2023-02-28T15:53:28;8.80;38.70
14101;DHT22;7127;49.372;8.166;2023-02-28T15:56:01;8.70;38.60
14101;DHT22;7127;49.372;8.166;2023-02-28T15:58:30;8.60;38.50
14101;DHT22;7127;49.372;8.166;2023-02-28T16:01:04;8.30;38.30
14101;DHT22;7127;49.372;8.166;2023-02-28T16:03:39;8.70;38.60
14101;DHT22;7127;49.372;8.166;2023-02-28T16:06:23;8.20;38.40
14101;DHT22;7127;49.372;8.166;2023-02-28T16:08:52;8.20;38.30
14101;DHT22;7127;49.372;8.166;2023-02-28T16:11:20;8.30;38.40
14101;DHT22;7127;49.372;8.166;2023-02-28T16:13:48;8.10;38.40
14101;DHT22;7127;49.372;8.166;2023-02-28T16:16:17;8.10;38.40
14101;DHT22;7127;49.372;8.166;2023-02-28T16:18:45;8.20;38.50
14101;DHT22;7127;49.372;8.166;2023-02-28T16:21:12;8.00;38.40
14101;DHT22;7127;49.372;8.166;2023-02-28T16:23:39;8.00;38.40
14101;DHT22;7127;49.372;8.166;2023-02-28T16:26:08;8.50;38.80
14101;DHT22;7127;49.372;8.166;2023-02-28T16:28:37;7.90;38.40
14101;DHT22;7127;49.372;8.166;2023-02-28T16:31:06;7.90;38.50
14101;DHT22;7127;49.372;8.166;2023-02-28T16:33:33;8.00;38.70
14101;DHT22;7127;49.372;8.166;2023-02-28T16:36:01;7.80;38.60
14101;DHT22;7127;49.372;8.166;2023-02-28T16:38:27;7.70;38.60
14101;DHT22;7127;49.372;8.166;2023-02-28T16:40:57;7.80;38.70